sensor_id;sensor_type;location;lat;lon;timestamp;pressure;altitude;pressure_sealevel;temperature;humidity
13869;BME280;7004;48.206;16.402;2022-07-05T00:01:09;99703.88;;;20.91;96.18
13869;BME280;7004;48.206;16.402;2022-07-05T00:03:35;99705.31;;;20.77;99.05
13869;BME280;7004;48.206;16.402;2022-07-05T00:06:02;99701.59;;;20.70;99.11
13869;BME280;7004;48.206;16.402;2022-07-05T00:08:29;99686.03;;;20.82;99.97
13869;BME280;7004;48.206;16.402;2022-07-05T00:10:55;99682.88;;;20.86;95.69
13869;BME280;7004;48.206;16.402;2022-07-05T00:13:21;99676.78;;;20.76;100.00
13869;BME280;7004;48.206;16.402;2022-07-05T00:15:48;99665.50;;;20.64;100.00
13869;BME280;7004;48.206;16.402;2022-07-05T00:18:14;99660.47;;;20.69;100.00
13869;BME280;7004;48.206;16.402;2022-07-05T00:20:40;99658.97;;;20.67;100.00
13869;BME280;7004;48.206;16.402;2022-07-05T00:23:07;99659.66;;;20.77;98.99
13869;BME280;7004;48.206;16.402;2022-07-05T00:25:33;99666.19;;;20.75;99.09
13869;BME280;7004;48.206;16.402;2022-07-05T00:28:00;99653.44;;;20.77;97.12
13869;BME280;7004;48.206;16.402;2022-07-05T00:30:26;99642.72;;;20.85;97.84
13869;BME280;7004;48.206;16.402;2022-07-05T00:32:52;99651.25;;;20.72;98.18
13869;BME280;7004;48.206;16.402;2022-07-05T00:35:18;99654.75;;;20.64;99.66
13869;BME280;7004;48.206;16.402;2022-07-05T00:37:44;99652.41;;;20.69;97.69
13869;BME280;7004;48.206;16.402;2022-07-05T00:40:10;99655.03;;;20.45;100.00
13869;BME280;7004;48.206;16.402;2022-07-05T00:42:37;99653.94;;;20.29;100.00
13869;BME280;7004;48.206;16.402;2022-07-05T00:45:05;99649.66;;;20.45;100.00
13869;BME280;7004;48.206;16.402;2022-07-05T00:47:32;99645.50;;;20.16;100.00
13869;BME280;7004;48.206;16.402;2022-07-05T00:49:58;99650.50;;;19.77;100.00
13869;BME280;7004;48.206;16.402;2022-07-05T00:52:24;99654.94;;;19.68;100.00
13869;BME280;7004;48.206;16.402;2022-07-05T00:54:50;99653.41;;;19.65;100.00
13869;BME280;7004;48.206;16.402;2022-07-05T00:57:20;99650.66;;;19.75;100.00
13869;BME280;7004;48.206;16.402;2022-07-05T00:59:47;99652.72;;;19.90;100.00
13869;BME280;7004;48.206;16.402;2022-07-05T01:02:13;99652.16;;;20.04;100.00
13869;BME280;7004;48.206;16.402;2022-07-05T01:04:39;99657.13;;;19.91;100.00
13869;BME280;7004;48.206;16.402;2022-07-05T01:07:05;99652.00;;;20.05;100.00
13869;BME280;7004;48.206;16.402;2022-07-05T01:09:33;99660.06;;;19.79;100.00
13869;BME280;7004;48.206;16.402;2022-07-05T01:12:00;99662.59;;;19.63;100.00
13869;BME280;7004;48.206;16.402;2022-07-05T01:14:26;99656.34;;;19.54;100.00
13869;BME280;7004;48.206;16.402;2022-07-05T01:16:53;99666.19;;;19.46;100.00
13869;BME280;7004;48.206;16.402;2022-07-05T01:19:21;99670.91;;;19.52;100.00
13869;BME280;7004;48.206;16.402;2022-07-05T01:21:48;99670.72;;;19.71;100.00
13869;BME280;7004;48.206;16.402;2022-07-05T01:24:17;99669.66;;;19.82;100.00
13869;BME280;7004;48.206;16.402;2022-07-05T01:26:47;99673.75;;;20.02;100.00
13869;BME280;7004;48.206;16.402;2022-07-05T01:29:13;99666.25;;;20.06;100.00
13869;BME280;7004;48.206;16.402;2022-07-05T01:31:40;99658.75;;;20.18;100.00
13869;BME280;7004;48.206;16.402;2022-07-05T01:34:07;99659.78;;;20.25;100.00
13869;BME280;7004;48.206;16.402;2022-07-05T01:36:35;99660.44;;;20.19;100.00
13869;BME280;7004;48.206;16.402;2022-07-05T01:39:04;99655.78;;;20.21;100.00
13869;BME280;7004;48.206;16.402;2022-07-05T01:41:31;99660.19;;;20.04;100.00
13869;BME280;7004;48.206;16.402;2022-07-05T01:43:57;99665.50;;;20.22;100.00
13869;BME280;7004;48.206;16.402;2022-07-05T01:46:24;99666.97;;;20.16;100.00
13869;BME280;7004;48.206;16.402;2022-07-05T01:48:56;99668.19;;;20.22;100.00
13869;BME280;7004;48.206;16.402;2022-07-05T01:52:08;99662.06;;;19.77;100.00
13869;BME280;7004;48.206;16.402;2022-07-05T01:54:35;99657.50;;;19.70;100.00
13869;BME280;7004;48.206;16.402;2022-07-05T01:57:03;99660.97;;;19.44;100.00
13869;BME280;7004;48.206;16.402;2022-07-05T01:59:48;99651.88;;;19.63;100.00
13869;BME280;7004;48.206;16.402;2022-07-05T02:02:15;99657.50;;;19.52;100.00
13869;BME280;7004;48.206;16.402;2022-07-05T02:04:42;99653.03;;;19.60;100.00
13869;BME280;7004;48.206;16.402;2022-07-05T02:07:09;99654.03;;;19.59;100.00
13869;BME280;7004;48.206;16.402;2022-07-05T02:09:36;99653.97;;;19.51;100.00
13869;BME280;7004;48.206;16.402;2022-07-05T02:12:04;99662.63;;;19.45;100.00
13869;BME280;7004;48.206;16.402;2022-07-05T02:14:32;99663.56;;;19.54;100.00
13869;BME280;7004;48.206;16.402;2022-07-05T02:16:59;99668.09;;;19.35;100.00
13869;BME280;7004;48.206;16.402;2022-07-05T02:19:25;99674.34;;;19.62;100.00
13869;BME280;7004;48.206;16.402;2022-07-05T02:21:51;99693.88;;;19.54;100.00
13869;BME280;7004;48.206;16.402;2022-07-05T02:24:20;99702.44;;;19.58;100.00
13869;BME280;7004;48.206;16.402;2022-07-05T02:26:48;99693.63;;;19.65;100.00
13869;BME280;7004;48.206;16.402;2022-07-05T02:29:15;99695.53;;;19.73;100.00
13869;BME280;7004;48.206;16.402;2022-07-05T02:31:41;99711.88;;;19.80;100.00
13869;BME280;7004;48.206;16.402;2022-07-05T02:34:07;99712.13;;;19.95;100.00
13869;BME280;7004;48.206;16.402;2022-07-05T02:36:33;99720.59;;;19.82;100.00
13869;BME280;7004;48.206;16.402;2022-07-05T02:39:00;99719.06;;;19.79;100.00
13869;BME280;7004;48.206;16.402;2022-07-05T02:41:26;99723.03;;;19.93;100.00
13869;BME280;7004;48.206;16.402;2022-07-05T02:43:52;99723.84;;;20.20;99.43
13869;BME280;7004;48.206;16.402;2022-07-05T02:46:18;99726.84;;;20.17;97.94
13869;BME280;7004;48.206;16.402;2022-07-05T02:48:45;99724.53;;;19.96;99.35
13869;BME280;7004;48.206;16.402;2022-07-05T02:51:11;99724.97;;;20.09;97.83
13869;BME280;7004;48.206;16.402;2022-07-05T02:53:37;99712.81;;;19.97;98.64
13869;BME280;7004;48.206;16.402;2022-07-05T02:56:04;99717.97;;;20.16;100.00
13869;BME280;7004;48.206;16.402;2022-07-05T02:58:30;99714.56;;;20.06;99.15
13869;BME280;7004;48.206;16.402;2022-07-05T03:00:56;99712.44;;;19.92;100.00
13869;BME280;7004;48.206;16.402;2022-07-05T03:03:22;99720.75;;;20.06;100.00
13869;BME280;7004;48.206;16.402;2022-07-05T03:05:48;99716.53;;;20.04;99.15
13869;BME280;7004;48.206;16.402;2022-07-05T03:08:17;99712.59;;;20.16;98.17
13869;BME280;7004;48.206;16.402;2022-07-05T03:10:43;99718.03;;;20.67;96.67
13869;BME280;7004;48.206;16.402;2022-07-05T03:13:09;99718.53;;;20.62;95.71
13869;BME280;7004;48.206;16.402;2022-07-05T03:15:35;99727.50;;;20.45;94.89
13869;BME280;7004;48.206;16.402;2022-07-05T03:18:01;99723.91;;;20.36;94.74
13869;BME280;7004;48.206;16.402;2022-07-05T03:20:27;99733.38;;;20.48;95.27
13869;BME280;7004;48.206;16.402;2022-07-05T03:22:54;99726.47;;;20.38;94.42
13869;BME280;7004;48.206;16.402;2022-07-05T03:25:20;99730.50;;;20.68;93.09
13869;BME280;7004;48.206;16.402;2022-07-05T03:27:46;99734.63;;;20.62;93.42
13869;BME280;7004;48.206;16.402;2022-07-05T03:30:13;99732.31;;;20.33;95.14
13869;BME280;7004;48.206;16.402;2022-07-05T03:32:39;99738.94;;;20.47;95.27
13869;BME280;7004;48.206;16.402;2022-07-05T03:35:06;99739.56;;;20.41;95.60
13869;BME280;7004;48.206;16.402;2022-07-05T03:37:32;99737.00;;;20.57;94.39
13869;BME280;7004;48.206;16.402;2022-07-05T03:39:58;99734.81;;;20.61;94.28
13869;BME280;7004;48.206;16.402;2022-07-05T03:42:24;99741.63;;;20.47;95.79
13869;BME280;7004;48.206;16.402;2022-07-05T03:44:50;99737.75;;;20.76;93.50
13869;BME280;7004;48.206;16.402;2022-07-05T03:47:16;99733.97;;;20.60;94.44
13869;BME280;7004;48.206;16.402;2022-07-05T03:49:43;99740.44;;;20.84;94.06
13869;BME280;7004;48.206;16.402;2022-07-05T03:52:09;99747.34;;;20.52;95.17
13869;BME280;7004;48.206;16.402;2022-07-05T03:54:35;99743.50;;;20.97;92.79
13869;BME280;7004;48.206;16.402;2022-07-05T03:57:01;99737.28;;;20.54;94.87
13869;BME280;7004;48.206;16.402;2022-07-05T03:59:27;99743.19;;;20.58;94.07
13869;BME280;7004;48.206;16.402;2022-07-05T04:01:53;99732.91;;;21.04;91.08
13869;BME280;7004;48.206;16.402;2022-07-05T04:04:19;99735.22;;;20.82;92.80
13869;BME280;7004;48.206;16.402;2022-07-05T04:06:45;99734.63;;;20.62;93.80
13869;BME280;7004;48.206;16.402;2022-07-05T04:09:11;99737.38;;;20.70;92.94
13869;BME280;7004;48.206;16.402;2022-07-05T04:11:38;99729.44;;;20.61;94.07
13869;BME280;7004;48.206;16.402;2022-07-05T04:14:04;99738.81;;;20.57;92.60
13869;BME280;7004;48.206;16.402;2022-07-05T04:16:30;99736.50;;;20.70;92.41
13869;BME280;7004;48.206;16.402;2022-07-05T04:18:56;99733.91;;;20.52;93.17
13869;BME280;7004;48.206;16.402;2022-07-05T04:21:22;99735.59;;;20.53;91.83
13869;BME280;7004;48.206;16.402;2022-07-05T04:23:49;99728.56;;;20.52;91.12
13869;BME280;7004;48.206;16.402;2022-07-05T04:26:14;99730.31;;;20.69;89.64
13869;BME280;7004;48.206;16.402;2022-07-05T04:28:41;99737.31;;;20.62;89.48
13869;BME280;7004;48.206;16.402;2022-07-05T04:31:07;99736.47;;;20.96;88.88
13869;BME280;7004;48.206;16.402;2022-07-05T04:33:34;99732.31;;;20.67;89.54
13869;BME280;7004;48.206;16.402;2022-07-05T04:36:00;99745.72;;;20.59;89.71
13869;BME280;7004;48.206;16.402;2022-07-05T04:38:26;99740.34;;;20.59;89.43
13869;BME280;7004;48.206;16.402;2022-07-05T04:40:52;99750.50;;;20.82;88.29
13869;BME280;7004;48.206;16.402;2022-07-05T04:43:18;99755.66;;;20.75;88.44
13869;BME280;7004;48.206;16.402;2022-07-05T04:45:44;99752.63;;;21.12;87.57
13869;BME280;7004;48.206;16.402;2022-07-05T04:48:10;99754.06;;;20.99;87.75
13869;BME280;7004;48.206;16.402;2022-07-05T04:50:36;99763.38;;;20.70;88.48
13869;BME280;7004;48.206;16.402;2022-07-05T04:53:03;99761.16;;;21.00;86.87
13869;BME280;7004;48.206;16.402;2022-07-05T04:55:29;99751.03;;;21.69;83.89
13869;BME280;7004;48.206;16.402;2022-07-05T04:57:55;99765.25;;;21.28;85.74
13869;BME280;7004;48.206;16.402;2022-07-05T05:00:21;99769.41;;;21.14;85.89
13869;BME280;7004;48.206;16.402;2022-07-05T05:02:47;99764.69;;;21.08;86.07
13869;BME280;7004;48.206;16.402;2022-07-05T05:05:13;99774.59;;;21.08;85.26
13869;BME280;7004;48.206;16.402;2022-07-05T05:07:43;99772.63;;;21.34;84.69
13869;BME280;7004;48.206;16.402;2022-07-05T05:10:11;99768.63;;;21.30;84.51
13869;BME280;7004;48.206;16.402;2022-07-05T05:12:37;99773.44;;;21.19;84.14
13869;BME280;7004;48.206;16.402;2022-07-05T05:15:04;99765.47;;;21.43;82.38
13869;BME280;7004;48.206;16.402;2022-07-05T05:17:42;99785.97;;;21.44;84.28
13869;BME280;7004;48.206;16.402;2022-07-05T05:20:18;99784.19;;;21.10;83.58
13869;BME280;7004;48.206;16.402;2022-07-05T05:22:46;99782.66;;;21.08;84.77
13869;BME280;7004;48.206;16.402;2022-07-05T05:25:13;99775.63;;;21.07;84.22
13869;BME280;7004;48.206;16.402;2022-07-05T05:27:48;99781.84;;;21.15;85.00
13869;BME280;7004;48.206;16.402;2022-07-05T05:30:19;99776.16;;;21.27;84.86
13869;BME280;7004;48.206;16.402;2022-07-05T05:32:46;99785.00;;;21.03;84.92
13869;BME280;7004;48.206;16.402;2022-07-05T05:35:12;99775.63;;;21.07;86.39
13869;BME280;7004;48.206;16.402;2022-07-05T05:37:51;99780.81;;;21.16;85.47
13869;BME280;7004;48.206;16.402;2022-07-05T05:40:19;99775.50;;;20.74;87.43
13869;BME280;7004;48.206;16.402;2022-07-05T05:42:45;99773.72;;;20.91;86.43
13869;BME280;7004;48.206;16.402;2022-07-05T05:45:12;99786.69;;;20.61;88.96
13869;BME280;7004;48.206;16.402;2022-07-05T05:47:52;99780.72;;;20.49;88.88
13869;BME280;7004;48.206;16.402;2022-07-05T05:50:25;99781.44;;;20.94;87.94
13869;BME280;7004;48.206;16.402;2022-07-05T05:52:52;99786.34;;;20.64;89.78
13869;BME280;7004;48.206;16.402;2022-07-05T05:55:19;99791.56;;;20.66;89.29
13869;BME280;7004;48.206;16.402;2022-07-05T05:57:47;99788.53;;;20.61;89.56
13869;BME280;7004;48.206;16.402;2022-07-05T06:00:14;99777.31;;;20.65;89.78
13869;BME280;7004;48.206;16.402;2022-07-05T06:02:41;99785.88;;;20.69;89.40
13869;BME280;7004;48.206;16.402;2022-07-05T06:05:09;99790.50;;;20.93;88.04
13869;BME280;7004;48.206;16.402;2022-07-05T06:07:51;99789.06;;;21.15;86.26
13869;BME280;7004;48.206;16.402;2022-07-05T06:10:26;99789.88;;;20.65;88.16
13869;BME280;7004;48.206;16.402;2022-07-05T06:12:54;99793.72;;;20.97;87.16
13869;BME280;7004;48.206;16.402;2022-07-05T06:15:22;99791.00;;;20.88;87.47
13869;BME280;7004;48.206;16.402;2022-07-05T06:17:48;99795.97;;;20.75;88.59
13869;BME280;7004;48.206;16.402;2022-07-05T06:20:24;99785.88;;;20.69;90.02
13869;BME280;7004;48.206;16.402;2022-07-05T06:22:51;99796.38;;;20.88;88.18
13869;BME280;7004;48.206;16.402;2022-07-05T06:25:18;99797.34;;;20.79;89.89
13869;BME280;7004;48.206;16.402;2022-07-05T06:27:53;99797.13;;;21.07;88.47
13869;BME280;7004;48.206;16.402;2022-07-05T06:30:25;99797.66;;;21.35;86.18
13869;BME280;7004;48.206;16.402;2022-07-05T06:32:52;99796.19;;;20.90;87.67
13869;BME280;7004;48.206;16.402;2022-07-05T06:35:19;99798.81;;;21.16;86.33
13869;BME280;7004;48.206;16.402;2022-07-05T06:37:59;99797.25;;;20.97;87.64
13869;BME280;7004;48.206;16.402;2022-07-05T06:40:29;99793.50;;;20.90;87.13
13869;BME280;7004;48.206;16.402;2022-07-05T06:42:58;99800.72;;;20.81;88.10
13869;BME280;7004;48.206;16.402;2022-07-05T06:45:25;99798.88;;;20.90;85.75
13869;BME280;7004;48.206;16.402;2022-07-05T06:47:59;99784.88;;;21.12;85.28
13869;BME280;7004;48.206;16.402;2022-07-05T06:50:28;99790.72;;;21.08;85.93
13869;BME280;7004;48.206;16.402;2022-07-05T06:52:55;99789.72;;;21.09;86.60
13869;BME280;7004;48.206;16.402;2022-07-05T06:55:22;99791.50;;;20.84;88.45
13869;BME280;7004;48.206;16.402;2022-07-05T06:57:49;99795.28;;;21.15;87.18
13869;BME280;7004;48.206;16.402;2022-07-05T07:00:15;99789.69;;;21.01;89.06
13869;BME280;7004;48.206;16.402;2022-07-05T07:02:41;99790.94;;;21.14;88.24
13869;BME280;7004;48.206;16.402;2022-07-05T07:05:08;99789.06;;;21.07;85.72
13869;BME280;7004;48.206;16.402;2022-07-05T07:07:35;99783.63;;;21.41;86.04
13869;BME280;7004;48.206;16.402;2022-07-05T07:10:20;99790.56;;;21.09;85.86
13869;BME280;7004;48.206;16.402;2022-07-05T07:12:46;99785.00;;;21.11;85.63
13869;BME280;7004;48.206;16.402;2022-07-05T07:15:12;99787.19;;;21.66;83.17
13869;BME280;7004;48.206;16.402;2022-07-05T07:17:38;99783.06;;;21.37;85.49
13869;BME280;7004;48.206;16.402;2022-07-05T07:20:05;99775.84;;;21.30;83.58
13869;BME280;7004;48.206;16.402;2022-07-05T07:22:31;99772.38;;;21.46;84.63
13869;BME280;7004;48.206;16.402;2022-07-05T07:24:57;99776.75;;;21.88;84.12
13869;BME280;7004;48.206;16.402;2022-07-05T07:27:23;99776.38;;;21.58;82.90
13869;BME280;7004;48.206;16.402;2022-07-05T07:29:49;99778.94;;;22.00;81.02
13869;BME280;7004;48.206;16.402;2022-07-05T07:32:15;99788.16;;;22.14;80.43
13869;BME280;7004;48.206;16.402;2022-07-05T07:34:41;99782.63;;;21.91;80.69
13869;BME280;7004;48.206;16.402;2022-07-05T07:37:07;99780.69;;;22.57;78.13
13869;BME280;7004;48.206;16.402;2022-07-05T07:39:39;99782.94;;;22.04;80.54
13869;BME280;7004;48.206;16.402;2022-07-05T07:42:09;99779.06;;;22.40;79.04
13869;BME280;7004;48.206;16.402;2022-07-05T07:44:35;99783.22;;;22.51;78.66
13869;BME280;7004;48.206;16.402;2022-07-05T07:47:01;99775.41;;;22.72;78.12
13869;BME280;7004;48.206;16.402;2022-07-05T07:49:27;99783.53;;;22.56;79.43
13869;BME280;7004;48.206;16.402;2022-07-05T07:51:54;99784.28;;;22.09;79.32
13869;BME280;7004;48.206;16.402;2022-07-05T07:54:20;99790.28;;;22.60;77.59
13869;BME280;7004;48.206;16.402;2022-07-05T07:56:46;99779.97;;;22.63;77.18
13869;BME280;7004;48.206;16.402;2022-07-05T07:59:12;99782.09;;;22.37;77.95
13869;BME280;7004;48.206;16.402;2022-07-05T08:01:38;99787.81;;;22.42;78.03
13869;BME280;7004;48.206;16.402;2022-07-05T08:04:05;99788.41;;;22.60;77.47
13869;BME280;7004;48.206;16.402;2022-07-05T08:06:31;99793.03;;;22.11;79.09
13869;BME280;7004;48.206;16.402;2022-07-05T08:08:57;99797.72;;;22.33;78.37
13869;BME280;7004;48.206;16.402;2022-07-05T08:11:23;99798.59;;;22.34;77.65
13869;BME280;7004;48.206;16.402;2022-07-05T08:13:49;99797.53;;;22.51;77.42
13869;BME280;7004;48.206;16.402;2022-07-05T08:16:15;99794.84;;;22.43;77.80
13869;BME280;7004;48.206;16.402;2022-07-05T08:18:41;99802.97;;;22.18;78.44
13869;BME280;7004;48.206;16.402;2022-07-05T08:21:26;99803.88;;;22.66;77.19
13869;BME280;7004;48.206;16.402;2022-07-05T08:24:09;99817.00;;;22.78;76.80
13869;BME280;7004;48.206;16.402;2022-07-05T08:26:37;99811.38;;;22.07;78.90
13869;BME280;7004;48.206;16.402;2022-07-05T08:29:07;99815.91;;;21.57;80.20
13869;BME280;7004;48.206;16.402;2022-07-05T08:31:41;99810.06;;;21.95;79.57
13869;BME280;7004;48.206;16.402;2022-07-05T08:34:08;99830.91;;;21.93;80.46
13869;BME280;7004;48.206;16.402;2022-07-05T08:36:34;99823.97;;;21.74;80.07
13869;BME280;7004;48.206;16.402;2022-07-05T08:39:00;99828.69;;;22.04;79.69
13869;BME280;7004;48.206;16.402;2022-07-05T08:41:26;99818.97;;;21.95;79.99
13869;BME280;7004;48.206;16.402;2022-07-05T08:43:56;99826.66;;;21.66;81.83
13869;BME280;7004;48.206;16.402;2022-07-05T08:46:25;99829.34;;;21.74;80.63
13869;BME280;7004;48.206;16.402;2022-07-05T08:48:53;99829.88;;;21.77;81.67
13869;BME280;7004;48.206;16.402;2022-07-05T08:51:21;99836.94;;;21.70;80.84
13869;BME280;7004;48.206;16.402;2022-07-05T08:53:50;99831.69;;;21.60;81.02
13869;BME280;7004;48.206;16.402;2022-07-05T08:56:17;99832.56;;;21.61;82.17
13869;BME280;7004;48.206;16.402;2022-07-05T08:58:45;99826.50;;;21.75;80.58
13869;BME280;7004;48.206;16.402;2022-07-05T09:01:12;99829.72;;;21.87;80.32
13869;BME280;7004;48.206;16.402;2022-07-05T09:03:49;99822.66;;;22.02;78.87
13869;BME280;7004;48.206;16.402;2022-07-05T09:06:25;99827.19;;;22.10;78.03
13869;BME280;7004;48.206;16.402;2022-07-05T09:08:56;99839.28;;;21.57;80.80
13869;BME280;7004;48.206;16.402;2022-07-05T09:11:30;99827.00;;;21.63;81.32
13869;BME280;7004;48.206;16.402;2022-07-05T09:14:03;99835.41;;;21.59;81.02
13869;BME280;7004;48.206;16.402;2022-07-05T09:16:30;99827.34;;;21.59;80.61
13869;BME280;7004;48.206;16.402;2022-07-05T09:19:06;99837.13;;;21.93;79.39
13869;BME280;7004;48.206;16.402;2022-07-05T09:21:34;99840.81;;;20.83;84.21
13869;BME280;7004;48.206;16.402;2022-07-05T09:24:04;99837.16;;;20.84;85.42
13869;BME280;7004;48.206;16.402;2022-07-05T09:26:39;99846.59;;;20.62;85.33
13869;BME280;7004;48.206;16.402;2022-07-05T09:29:15;99846.28;;;20.99;85.09
13869;BME280;7004;48.206;16.402;2022-07-05T09:31:45;99840.59;;;20.68;86.79
13869;BME280;7004;48.206;16.402;2022-07-05T09:34:17;99841.13;;;21.14;85.02
13869;BME280;7004;48.206;16.402;2022-07-05T09:36:57;99844.53;;;20.82;86.59
13869;BME280;7004;48.206;16.402;2022-07-05T09:44:49;99848.69;;;20.50;88.12
13869;BME280;7004;48.206;16.402;2022-07-05T09:47:19;99847.56;;;20.35;88.01
13869;BME280;7004;48.206;16.402;2022-07-05T09:49:50;99853.78;;;20.35;87.23
13869;BME280;7004;48.206;16.402;2022-07-05T09:52:36;99863.72;;;20.17;88.09
13869;BME280;7004;48.206;16.402;2022-07-05T09:55:15;99867.09;;;20.19;89.05
13869;BME280;7004;48.206;16.402;2022-07-05T09:57:43;99860.16;;;19.90;90.19
13869;BME280;7004;48.206;16.402;2022-07-05T10:00:15;99856.75;;;19.88;91.19
13869;BME280;7004;48.206;16.402;2022-07-05T10:02:54;99861.75;;;20.01;91.69
13869;BME280;7004;48.206;16.402;2022-07-05T10:05:27;99859.38;;;19.98;92.23
13869;BME280;7004;48.206;16.402;2022-07-05T10:07:57;99855.69;;;19.99;92.55
13869;BME280;7004;48.206;16.402;2022-07-05T10:10:29;99857.84;;;20.39;91.44
13869;BME280;7004;48.206;16.402;2022-07-05T10:12:59;99854.09;;;19.88;93.15
13869;BME280;7004;48.206;16.402;2022-07-05T10:15:30;99860.59;;;19.85;94.47
13869;BME280;7004;48.206;16.402;2022-07-05T10:18:09;99852.19;;;20.24;92.17
13869;BME280;7004;48.206;16.402;2022-07-05T10:20:41;99851.81;;;20.19;92.83
13869;BME280;7004;48.206;16.402;2022-07-05T10:23:18;99853.31;;;20.58;90.79
13869;BME280;7004;48.206;16.402;2022-07-05T10:25:48;99858.72;;;20.66;91.04
13869;BME280;7004;48.206;16.402;2022-07-05T10:28:17;99860.66;;;20.12;91.76
13869;BME280;7004;48.206;16.402;2022-07-05T10:30:48;99859.59;;;20.04;91.53
13869;BME280;7004;48.206;16.402;2022-07-05T10:33:19;99867.38;;;20.60;89.52
13869;BME280;7004;48.206;16.402;2022-07-05T10:35:51;99868.69;;;20.12;90.83
13869;BME280;7004;48.206;16.402;2022-07-05T10:38:18;99875.66;;;20.22;90.32
13869;BME280;7004;48.206;16.402;2022-07-05T10:40:50;99873.44;;;20.88;88.18
13869;BME280;7004;48.206;16.402;2022-07-05T10:43:17;99871.03;;;20.33;89.83
13869;BME280;7004;48.206;16.402;2022-07-05T10:45:51;99876.97;;;20.88;87.26
13869;BME280;7004;48.206;16.402;2022-07-05T10:51:13;99879.22;;;20.49;90.18
13869;BME280;7004;48.206;16.402;2022-07-05T10:58:45;99885.91;;;20.45;88.33
13869;BME280;7004;48.206;16.402;2022-07-05T11:04:18;99885.81;;;19.93;90.32
13869;BME280;7004;48.206;16.402;2022-07-05T11:06:42;99892.84;;;20.29;89.08
13869;BME280;7004;48.206;16.402;2022-07-05T11:14:29;99887.56;;;20.02;90.40
13869;BME280;7004;48.206;16.402;2022-07-05T11:17:17;99897.00;;;19.70;92.14
13869;BME280;7004;48.206;16.402;2022-07-05T11:20:17;99882.28;;;20.54;88.45
13869;BME280;7004;48.206;16.402;2022-07-05T11:23:12;99890.13;;;20.47;89.09
13869;BME280;7004;48.206;16.402;2022-07-05T11:25:44;99887.50;;;19.94;90.33
13869;BME280;7004;48.206;16.402;2022-07-05T11:28:18;99881.88;;;20.23;89.22
13869;BME280;7004;48.206;16.402;2022-07-05T11:30:57;99877.25;;;20.33;89.18
13869;BME280;7004;48.206;16.402;2022-07-05T11:33:34;99887.63;;;20.28;89.22
13869;BME280;7004;48.206;16.402;2022-07-05T11:36:03;99891.13;;;20.28;88.79
13869;BME280;7004;48.206;16.402;2022-07-05T11:38:30;99887.56;;;20.46;88.49
13869;BME280;7004;48.206;16.402;2022-07-05T11:41:14;99878.34;;;20.22;89.23
13869;BME280;7004;48.206;16.402;2022-07-05T11:43:40;99878.88;;;20.70;87.49
13869;BME280;7004;48.206;16.402;2022-07-05T11:46:07;99882.34;;;20.18;89.39
13869;BME280;7004;48.206;16.402;2022-07-05T11:48:34;99871.84;;;20.51;88.59
13869;BME280;7004;48.206;16.402;2022-07-05T11:51:13;99871.06;;;20.85;86.44
13869;BME280;7004;48.206;16.402;2022-07-05T11:53:40;99866.94;;;20.46;87.63
13869;BME280;7004;48.206;16.402;2022-07-05T11:56:07;99867.56;;;20.40;88.78
13869;BME280;7004;48.206;16.402;2022-07-05T11:58:33;99862.66;;;20.36;88.92
13869;BME280;7004;48.206;16.402;2022-07-05T12:01:00;99865.16;;;20.29;89.31
13869;BME280;7004;48.206;16.402;2022-07-05T12:03:27;99858.53;;;20.67;88.10
13869;BME280;7004;48.206;16.402;2022-07-05T12:05:54;99860.88;;;20.88;87.06
13869;BME280;7004;48.206;16.402;2022-07-05T12:08:22;99859.06;;;20.45;87.84
13869;BME280;7004;48.206;16.402;2022-07-05T12:10:51;99864.13;;;21.08;86.33
13869;BME280;7004;48.206;16.402;2022-07-05T12:13:47;99852.50;;;21.00;86.15
13869;BME280;7004;48.206;16.402;2022-07-05T12:16:14;99849.44;;;21.37;83.83
13869;BME280;7004;48.206;16.402;2022-07-05T12:18:56;99858.28;;;21.21;83.81
13869;BME280;7004;48.206;16.402;2022-07-05T12:21:25;99854.09;;;21.77;82.25
13869;BME280;7004;48.206;16.402;2022-07-05T12:23:51;99858.78;;;21.59;82.76
13869;BME280;7004;48.206;16.402;2022-07-05T12:26:20;99849.03;;;22.15;80.34
13869;BME280;7004;48.206;16.402;2022-07-05T12:28:48;99861.16;;;21.78;82.05
13869;BME280;7004;48.206;16.402;2022-07-05T12:31:24;99867.47;;;21.45;82.39
13869;BME280;7004;48.206;16.402;2022-07-05T12:33:51;99853.38;;;21.51;82.85
13869;BME280;7004;48.206;16.402;2022-07-05T12:36:20;99851.91;;;21.89;80.48
13869;BME280;7004;48.206;16.402;2022-07-05T12:38:49;99857.78;;;21.68;80.97
13869;BME280;7004;48.206;16.402;2022-07-05T12:41:22;99841.28;;;22.61;77.64
13869;BME280;7004;48.206;16.402;2022-07-05T12:43:58;99844.91;;;22.21;78.30
13869;BME280;7004;48.206;16.402;2022-07-05T12:46:40;99849.34;;;22.78;75.21
13869;BME280;7004;48.206;16.402;2022-07-05T12:49:08;99848.56;;;22.28;77.82
13869;BME280;7004;48.206;16.402;2022-07-05T12:51:41;99849.13;;;22.79;76.79
13869;BME280;7004;48.206;16.402;2022-07-05T12:54:20;99846.84;;;22.43;77.69
13869;BME280;7004;48.206;16.402;2022-07-05T12:57:05;99840.25;;;22.71;77.34
13869;BME280;7004;48.206;16.402;2022-07-05T13:00:03;99825.69;;;22.08;79.13
13869;BME280;7004;48.206;16.402;2022-07-05T13:02:41;99839.00;;;22.34;78.13
13869;BME280;7004;48.206;16.402;2022-07-05T13:05:19;99834.09;;;22.04;79.00
13869;BME280;7004;48.206;16.402;2022-07-05T13:07:46;99826.69;;;22.23;79.12
13869;BME280;7004;48.206;16.402;2022-07-05T13:10:19;99834.41;;;22.18;78.36
13869;BME280;7004;48.206;16.402;2022-07-05T13:12:47;99837.28;;;21.75;79.91
13869;BME280;7004;48.206;16.402;2022-07-05T13:15:14;99843.84;;;22.06;78.98
13869;BME280;7004;48.206;16.402;2022-07-05T13:17:41;99844.66;;;21.73;80.02
13869;BME280;7004;48.206;16.402;2022-07-05T13:20:09;99841.31;;;21.96;79.70
13869;BME280;7004;48.206;16.402;2022-07-05T13:22:35;99839.31;;;21.90;79.99
13869;BME280;7004;48.206;16.402;2022-07-05T13:25:01;99843.00;;;22.38;77.17
13869;BME280;7004;48.206;16.402;2022-07-05T13:27:30;99828.91;;;22.19;77.94
13869;BME280;7004;48.206;16.402;2022-07-05T13:29:58;99841.97;;;21.65;79.87